sensor_id;sensor_type;location;lat;lon;timestamp;temperature;humidity
13694;DHT22;6919;52.344;14.518;2023-04-21T00:02:24;9.10;1.00
13694;DHT22;6919;52.344;14.518;2023-04-21T00:04:53;9.10;1.00
13694;DHT22;6919;52.344;14.518;2023-04-21T00:07:22;9.00;1.00
13694;DHT22;6919;52.344;14.518;2023-04-21T00:09:50;9.00;1.00
13694;DHT22;6919;52.344;14.518;2023-04-21T00:12:18;9.20;1.00
13694;DHT22;6919;52.344;14.518;2023-04-21T00:14:47;9.10;1.00
13694;DHT22;6919;52.344;14.518;2023-04-21T00:17:16;9.80;1.00
13694;DHT22;6919;52.344;14.518;2023-04-21T00:19:45;9.30;1.00
13694;DHT22;6919;52.344;14.518;2023-04-21T00:22:13;9.10;1.00
13694;DHT22;6919;52.344;14.518;2023-04-21T00:24:42;9.20;1.00
13694;DHT22;6919;52.344;14.518;2023-04-21T00:27:10;9.10;1.00
13694;DHT22;6919;52.344;14.518;2023-04-21T00:29:39;9.10;1.00
13694;DHT22;6919;52.344;14.518;2023-04-21T00:32:08;9.00;1.00
13694;DHT22;6919;52.344;14.518;2023-04-21T00:34:38;9.10;1.00
13694;DHT22;6919;52.344;14.518;2023-04-21T00:37:06;9.00;1.00
13694;DHT22;6919;52.344;14.518;2023-04-21T00:39:35;8.90;1.00
13694;DHT22;6919;52.344;14.518;2023-04-21T00:42:03;8.90;1.00
13694;DHT22;6919;52.344;14.518;2023-04-21T00:44:32;9.00;1.00
13694;DHT22;6919;52.344;14.518;2023-04-21T00:47:00;8.90;1.00
13694;DHT22;6919;52.344;14.518;2023-04-21T00:49:29;8.80;1.00
13694;DHT22;6919;52.344;14.518;2023-04-21T00:51:59;8.70;1.00
13694;DHT22;6919;52.344;14.518;2023-04-21T00:54:27;8.70;1.00
13694;DHT22;6919;52.344;14.518;2023-04-21T00:56:56;9.10;1.00
13694;DHT22;6919;52.344;14.518;2023-04-21T00:59:27;8.70;1.00
13694;DHT22;6919;52.344;14.518;2023-04-21T01:01:55;8.70;1.00
13694;DHT22;6919;52.344;14.518;2023-04-21T01:04:24;8.80;1.00
13694;DHT22;6919;52.344;14.518;2023-04-21T01:06:53;8.80;1.00
13694;DHT22;6919;52.344;14.518;2023-04-21T01:09:23;8.80;1.00
13694;DHT22;6919;52.344;14.518;2023-04-21T01:12:00;8.90;1.00
13694;DHT22;6919;52.344;14.518;2023-04-21T01:14:30;8.80;1.00
13694;DHT22;6919;52.344;14.518;2023-04-21T01:16:58;8.80;1.00
13694;DHT22;6919;52.344;14.518;2023-04-21T01:19:29;9.00;1.00
13694;DHT22;6919;52.344;14.518;2023-04-21T01:22:01;8.70;1.00
13694;DHT22;6919;52.344;14.518;2023-04-21T01:24:40;8.70;1.00
13694;DHT22;6919;52.344;14.518;2023-04-21T01:27:11;8.70;1.00
13694;DHT22;6919;52.344;14.518;2023-04-21T01:29:42;8.80;1.00
13694;DHT22;6919;52.344;14.518;2023-04-21T01:32:14;8.80;1.00
13694;DHT22;6919;52.344;14.518;2023-04-21T01:34:45;8.60;1.00
13694;DHT22;6919;52.344;14.518;2023-04-21T01:37:17;8.70;1.00
13694;DHT22;6919;52.344;14.518;2023-04-21T01:39:50;8.60;1.00
13694;DHT22;6919;52.344;14.518;2023-04-21T01:42:21;8.90;1.00
13694;DHT22;6919;52.344;14.518;2023-04-21T01:44:52;8.60;1.00
13694;DHT22;6919;52.344;14.518;2023-04-21T01:47:21;8.60;1.00
13694;DHT22;6919;52.344;14.518;2023-04-21T01:49:51;8.90;1.00
13694;DHT22;6919;52.344;14.518;2023-04-21T01:52:21;8.50;1.00
13694;DHT22;6919;52.344;14.518;2023-04-21T01:54:50;8.70;1.00
13694;DHT22;6919;52.344;14.518;2023-04-21T01:57:18;8.60;1.00
13694;DHT22;6919;52.344;14.518;2023-04-21T01:59:46;8.70;1.00
13694;DHT22;6919;52.344;14.518;2023-04-21T02:02:15;8.60;1.00
13694;DHT22;6919;52.344;14.518;2023-04-21T02:04:44;8.60;1.00
13694;DHT22;6919;52.344;14.518;2023-04-21T02:07:12;8.70;1.00
13694;DHT22;6919;52.344;14.518;2023-04-21T02:09:42;8.60;1.00
13694;DHT22;6919;52.344;14.518;2023-04-21T02:12:10;8.50;1.00
13694;DHT22;6919;52.344;14.518;2023-04-21T02:14:38;8.50;1.00
13694;DHT22;6919;52.344;14.518;2023-04-21T02:17:07;8.40;1.00
13694;DHT22;6919;52.344;14.518;2023-04-21T02:19:35;8.50;1.00
13694;DHT22;6919;52.344;14.518;2023-04-21T02:22:04;8.40;1.00
13694;DHT22;6919;52.344;14.518;2023-04-21T02:24:34;8.30;1.00
13694;DHT22;6919;52.344;14.518;2023-04-21T02:27:03;8.10;1.00
13694;DHT22;6919;52.344;14.518;2023-04-21T02:29:32;8.20;1.00
13694;DHT22;6919;52.344;14.518;2023-04-21T02:32:00;7.90;1.00
13694;DHT22;6919;52.344;14.518;2023-04-21T02:34:48;8.00;99.90
13694;DHT22;6919;52.344;14.518;2023-04-21T02:37:17;7.80;99.90
13694;DHT22;6919;52.344;14.518;2023-04-21T02:39:45;7.90;1.00
13694;DHT22;6919;52.344;14.518;2023-04-21T02:44:43;7.60;1.00
13694;DHT22;6919;52.344;14.518;2023-04-21T02:47:14;7.50;1.00
13694;DHT22;6919;52.344;14.518;2023-04-21T02:49:43;7.50;1.00
13694;DHT22;6919;52.344;14.518;2023-04-21T02:52:11;7.40;1.00
13694;DHT22;6919;52.344;14.518;2023-04-21T02:54:40;7.60;1.00
13694;DHT22;6919;52.344;14.518;2023-04-21T02:57:08;8.10;1.00
13694;DHT22;6919;52.344;14.518;2023-04-21T02:59:38;7.50;1.00
13694;DHT22;6919;52.344;14.518;2023-04-21T03:02:06;7.70;1.00
13694;DHT22;6919;52.344;14.518;2023-04-21T03:04:35;7.70;1.00
13694;DHT22;6919;52.344;14.518;2023-04-21T03:07:03;7.70;1.00
13694;DHT22;6919;52.344;14.518;2023-04-21T03:09:31;7.70;1.00
13694;DHT22;6919;52.344;14.518;2023-04-21T03:12:00;7.50;1.00
13694;DHT22;6919;52.344;14.518;2023-04-21T03:14:28;7.30;94.00
13694;DHT22;6919;52.344;14.518;2023-04-21T03:16:58;7.10;99.90
13694;DHT22;6919;52.344;14.518;2023-04-21T03:19:26;7.00;99.90
13694;DHT22;6919;52.344;14.518;2023-04-21T03:21:55;6.80;1.00
13694;DHT22;6919;52.344;14.518;2023-04-21T03:24:23;6.90;1.00
13694;DHT22;6919;52.344;14.518;2023-04-21T03:26:52;6.90;1.00
13694;DHT22;6919;52.344;14.518;2023-04-21T03:29:21;7.10;1.00
13694;DHT22;6919;52.344;14.518;2023-04-21T03:31:49;6.60;1.00
13694;DHT22;6919;52.344;14.518;2023-04-21T03:34:19;6.70;1.00
13694;DHT22;6919;52.344;14.518;2023-04-21T03:36:47;6.60;1.00
13694;DHT22;6919;52.344;14.518;2023-04-21T03:39:16;6.50;1.00
13694;DHT22;6919;52.344;14.518;2023-04-21T03:41:46;6.40;1.00
13694;DHT22;6919;52.344;14.518;2023-04-21T03:44:14;6.40;1.00
13694;DHT22;6919;52.344;14.518;2023-04-21T03:46:43;6.20;1.00
13694;DHT22;6919;52.344;14.518;2023-04-21T03:49:11;6.30;1.00
13694;DHT22;6919;52.344;14.518;2023-04-21T03:51:41;6.30;1.00
13694;DHT22;6919;52.344;14.518;2023-04-21T03:54:09;6.40;8.80
13694;DHT22;6919;52.344;14.518;2023-04-21T03:56:37;6.30;18.30
13694;DHT22;6919;52.344;14.518;2023-04-21T03:59:06;6.20;46.00
13694;DHT22;6919;52.344;14.518;2023-04-21T04:01:34;6.30;23.50
13694;DHT22;6919;52.344;14.518;2023-04-21T04:04:03;6.30;3.10
13694;DHT22;6919;52.344;14.518;2023-04-21T04:06:32;6.30;21.70
13694;DHT22;6919;52.344;14.518;2023-04-21T04:09:02;6.40;59.90
13694;DHT22;6919;52.344;14.518;2023-04-21T04:11:31;6.20;24.40
13694;DHT22;6919;52.344;14.518;2023-04-21T04:13:59;6.30;48.70
13694;DHT22;6919;52.344;14.518;2023-04-21T04:16:28;6.50;72.00
13694;DHT22;6919;52.344;14.518;2023-04-21T04:18:56;6.50;68.60
13694;DHT22;6919;52.344;14.518;2023-04-21T04:21:25;6.40;52.00
13694;DHT22;6919;52.344;14.518;2023-04-21T04:23:54;6.40;1.00
13694;DHT22;6919;52.344;14.518;2023-04-21T04:26:24;6.50;1.00
13694;DHT22;6919;52.344;14.518;2023-04-21T04:28:52;6.40;1.00
13694;DHT22;6919;52.344;14.518;2023-04-21T04:31:22;6.50;26.50
13694;DHT22;6919;52.344;14.518;2023-04-21T04:33:51;6.60;28.70
13694;DHT22;6919;52.344;14.518;2023-04-21T04:36:21;6.60;29.70
13694;DHT22;6919;52.344;14.518;2023-04-21T04:38:50;6.70;39.30
13694;DHT22;6919;52.344;14.518;2023-04-21T04:41:18;6.80;1.00
13694;DHT22;6919;52.344;14.518;2023-04-21T04:43:49;6.60;1.00
13694;DHT22;6919;52.344;14.518;2023-04-21T04:46:19;6.70;1.00
13694;DHT22;6919;52.344;14.518;2023-04-21T04:48:47;7.00;8.60
13694;DHT22;6919;52.344;14.518;2023-04-21T04:51:15;7.00;1.00
13694;DHT22;6919;52.344;14.518;2023-04-21T04:53:44;7.20;3.80
13694;DHT22;6919;52.344;14.518;2023-04-21T04:56:12;7.40;3.60
13694;DHT22;6919;52.344;14.518;2023-04-21T04:58:40;7.60;1.00
13694;DHT22;6919;52.344;14.518;2023-04-21T05:01:14;7.80;1.00
13694;DHT22;6919;52.344;14.518;2023-04-21T05:03:44;7.90;1.00
13694;DHT22;6919;52.344;14.518;2023-04-21T05:06:13;7.80;1.00
13694;DHT22;6919;52.344;14.518;2023-04-21T05:08:42;8.00;1.00
13694;DHT22;6919;52.344;14.518;2023-04-21T05:11:10;8.20;1.00
13694;DHT22;6919;52.344;14.518;2023-04-21T05:13:38;8.40;1.00
13694;DHT22;6919;52.344;14.518;2023-04-21T05:16:07;8.50;1.00
13694;DHT22;6919;52.344;14.518;2023-04-21T05:18:38;8.60;99.90
13694;DHT22;6919;52.344;14.518;2023-04-21T05:21:06;8.70;1.00
13694;DHT22;6919;52.344;14.518;2023-04-21T05:23:35;8.70;99.90
13694;DHT22;6919;52.344;14.518;2023-04-21T05:26:03;8.80;99.90
13694;DHT22;6919;52.344;14.518;2023-04-21T05:28:32;8.90;99.90
13694;DHT22;6919;52.344;14.518;2023-04-21T05:31:01;9.10;1.00
13694;DHT22;6919;52.344;14.518;2023-04-21T05:33:29;9.10;1.00
13694;DHT22;6919;52.344;14.518;2023-04-21T05:35:59;9.20;1.00
13694;DHT22;6919;52.344;14.518;2023-04-21T05:38:28;9.40;99.90
13694;DHT22;6919;52.344;14.518;2023-04-21T05:40:56;9.40;1.00
13694;DHT22;6919;52.344;14.518;2023-04-21T05:43:26;9.40;1.00
13694;DHT22;6919;52.344;14.518;2023-04-21T05:45:54;9.50;1.00
13694;DHT22;6919;52.344;14.518;2023-04-21T05:48:22;9.80;13.90
13694;DHT22;6919;52.344;14.518;2023-04-21T05:50:51;10.00;1.00
13694;DHT22;6919;52.344;14.518;2023-04-21T05:53:21;10.00;1.00
13694;DHT22;6919;52.344;14.518;2023-04-21T05:55:50;10.20;99.90
13694;DHT22;6919;52.344;14.518;2023-04-21T05:58:18;10.40;1.00
13694;DHT22;6919;52.344;14.518;2023-04-21T06:00:46;10.60;11.40
13694;DHT22;6919;52.344;14.518;2023-04-21T06:03:15;10.70;1.00
13694;DHT22;6919;52.344;14.518;2023-04-21T06:05:44;10.80;99.90
13694;DHT22;6919;52.344;14.518;2023-04-21T06:08:13;10.70;1.00
13694;DHT22;6919;52.344;14.518;2023-04-21T06:10:43;11.00;1.00
13694;DHT22;6919;52.344;14.518;2023-04-21T06:13:11;11.10;1.00
13694;DHT22;6919;52.344;14.518;2023-04-21T06:15:40;11.20;99.90
13694;DHT22;6919;52.344;14.518;2023-04-21T06:18:08;11.40;49.00
13694;DHT22;6919;52.344;14.518;2023-04-21T06:20:37;11.50;99.90
13694;DHT22;6919;52.344;14.518;2023-04-21T06:23:06;12.10;1.00
13694;DHT22;6919;52.344;14.518;2023-04-21T06:25:35;12.00;1.00
13694;DHT22;6919;52.344;14.518;2023-04-21T06:28:05;12.10;1.00
13694;DHT22;6919;52.344;14.518;2023-04-21T06:30:33;12.10;1.00
13694;DHT22;6919;52.344;14.518;2023-04-21T06:33:02;12.50;1.00
13694;DHT22;6919;52.344;14.518;2023-04-21T06:35:32;12.60;1.00
13694;DHT22;6919;52.344;14.518;2023-04-21T06:38:01;13.00;1.00
13694;DHT22;6919;52.344;14.518;2023-04-21T06:40:29;13.10;99.90
13694;DHT22;6919;52.344;14.518;2023-04-21T06:42:57;13.40;99.90
13694;DHT22;6919;52.344;14.518;2023-04-21T06:45:27;13.40;99.90
13694;DHT22;6919;52.344;14.518;2023-04-21T06:47:56;13.40;99.90
13694;DHT22;6919;52.344;14.518;2023-04-21T06:50:24;13.60;99.90
13694;DHT22;6919;52.344;14.518;2023-04-21T06:52:52;13.50;99.90
13694;DHT22;6919;52.344;14.518;2023-04-21T06:55:21;13.80;99.90
13694;DHT22;6919;52.344;14.518;2023-04-21T06:57:49;13.90;99.90
13694;DHT22;6919;52.344;14.518;2023-04-21T07:00:18;14.10;99.90
13694;DHT22;6919;52.344;14.518;2023-04-21T07:02:48;14.10;99.90
13694;DHT22;6919;52.344;14.518;2023-04-21T07:05:17;14.20;99.90
13694;DHT22;6919;52.344;14.518;2023-04-21T07:07:45;14.50;99.90
13694;DHT22;6919;52.344;14.518;2023-04-21T07:10:14;14.40;99.90
13694;DHT22;6919;52.344;14.518;2023-04-21T07:12:45;14.50;99.90
13694;DHT22;6919;52.344;14.518;2023-04-21T07:15:13;14.50;99.90
13694;DHT22;6919;52.344;14.518;2023-04-21T07:17:42;14.50;99.90
13694;DHT22;6919;52.344;14.518;2023-04-21T07:20:12;14.40;99.90
13694;DHT22;6919;52.344;14.518;2023-04-21T07:22:41;14.50;99.90
13694;DHT22;6919;52.344;14.518;2023-04-21T07:25:10;14.90;99.90
13694;DHT22;6919;52.344;14.518;2023-04-21T07:27:38;15.10;99.90
13694;DHT22;6919;52.344;14.518;2023-04-21T07:30:08;15.30;99.90
13694;DHT22;6919;52.344;14.518;2023-04-21T07:32:37;15.30;99.90
13694;DHT22;6919;52.344;14.518;2023-04-21T07:35:06;15.50;99.90
13694;DHT22;6919;52.344;14.518;2023-04-21T07:37:36;15.30;99.90
13694;DHT22;6919;52.344;14.518;2023-04-21T07:40:07;15.60;99.90
13694;DHT22;6919;52.344;14.518;2023-04-21T07:42:36;15.80;99.90
13694;DHT22;6919;52.344;14.518;2023-04-21T07:45:05;15.90;99.90
13694;DHT22;6919;52.344;14.518;2023-04-21T07:47:34;15.90;99.90
13694;DHT22;6919;52.344;14.518;2023-04-21T07:50:03;16.10;99.90
13694;DHT22;6919;52.344;14.518;2023-04-21T07:52:32;16.30;99.90
13694;DHT22;6919;52.344;14.518;2023-04-21T07:55:02;16.30;99.90
13694;DHT22;6919;52.344;14.518;2023-04-21T07:57:31;16.40;99.90
13694;DHT22;6919;52.344;14.518;2023-04-21T08:00:05;16.30;99.90
13694;DHT22;6919;52.344;14.518;2023-04-21T08:02:35;16.30;99.90
13694;DHT22;6919;52.344;14.518;2023-04-21T08:05:04;16.30;99.90
13694;DHT22;6919;52.344;14.518;2023-04-21T08:07:33;16.60;99.90
13694;DHT22;6919;52.344;14.518;2023-04-21T08:10:03;16.60;99.90
13694;DHT22;6919;52.344;14.518;2023-04-21T08:12:32;16.60;99.90
13694;DHT22;6919;52.344;14.518;2023-04-21T08:15:01;16.80;99.90
13694;DHT22;6919;52.344;14.518;2023-04-21T08:17:51;17.00;99.90
13694;DHT22;6919;52.344;14.518;2023-04-21T08:20:20;17.00;99.90
13694;DHT22;6919;52.344;14.518;2023-04-21T08:22:49;17.30;99.90
13694;DHT22;6919;52.344;14.518;2023-04-21T08:25:19;17.40;99.90
13694;DHT22;6919;52.344;14.518;2023-04-21T08:27:48;17.20;99.90
13694;DHT22;6919;52.344;14.518;2023-04-21T08:30:17;17.00;99.90
13694;DHT22;6919;52.344;14.518;2023-04-21T08:32:48;17.20;99.90
13694;DHT22;6919;52.344;14.518;2023-04-21T08:35:17;17.00;99.90
13694;DHT22;6919;52.344;14.518;2023-04-21T08:37:45;17.20;99.90
13694;DHT22;6919;52.344;14.518;2023-04-21T08:40:16;17.50;99.90
13694;DHT22;6919;52.344;14.518;2023-04-21T08:42:47;17.50;99.90
13694;DHT22;6919;52.344;14.518;2023-04-21T08:45:16;17.80;99.90
13694;DHT22;6919;52.344;14.518;2023-04-21T08:47:45;17.60;99.90
13694;DHT22;6919;52.344;14.518;2023-04-21T08:50:15;17.80;99.90
13694;DHT22;6919;52.344;14.518;2023-04-21T08:52:43;18.00;99.90
13694;DHT22;6919;52.344;14.518;2023-04-21T08:55:12;18.10;99.90
13694;DHT22;6919;52.344;14.518;2023-04-21T08:57:42;18.20;99.90
13694;DHT22;6919;52.344;14.518;2023-04-21T09:00:13;18.20;99.90
13694;DHT22;6919;52.344;14.518;2023-04-21T09:02:55;18.40;99.90
13694;DHT22;6919;52.344;14.518;2023-04-21T09:05:29;18.60;99.90
13694;DHT22;6919;52.344;14.518;2023-04-21T09:08:10;18.60;99.90
13694;DHT22;6919;52.344;14.518;2023-04-21T09:10:42;18.80;99.90
13694;DHT22;6919;52.344;14.518;2023-04-21T09:13:12;18.90;99.90
13694;DHT22;6919;52.344;14.518;2023-04-21T09:15:43;19.10;99.90
13694;DHT22;6919;52.344;14.518;2023-04-21T09:18:13;18.90;99.90
13694;DHT22;6919;52.344;14.518;2023-04-21T09:20:45;19.00;99.90
13694;DHT22;6919;52.344;14.518;2023-04-21T09:23:15;19.00;99.90
13694;DHT22;6919;52.344;14.518;2023-04-21T09:25:44;19.00;99.90
13694;DHT22;6919;52.344;14.518;2023-04-21T09:28:13;19.20;99.90
13694;DHT22;6919;52.344;14.518;2023-04-21T09:30:43;19.20;99.90
13694;DHT22;6919;52.344;14.518;2023-04-21T09:33:16;19.30;99.90
13694;DHT22;6919;52.344;14.518;2023-04-21T09:36:00;19.40;99.90
13694;DHT22;6919;52.344;14.518;2023-04-21T09:38:29;19.50;99.90
13694;DHT22;6919;52.344;14.518;2023-04-21T09:40:59;19.60;99.90
13694;DHT22;6919;52.344;14.518;2023-04-21T09:43:27;19.70;99.90
13694;DHT22;6919;52.344;14.518;2023-04-21T09:45:57;19.70;99.90
13694;DHT22;6919;52.344;14.518;2023-04-21T09:48:31;19.60;99.90
13694;DHT22;6919;52.344;14.518;2023-04-21T09:51:03;19.60;99.90
13694;DHT22;6919;52.344;14.518;2023-04-21T09:53:36;19.50;99.90
13694;DHT22;6919;52.344;14.518;2023-04-21T09:56:10;19.40;99.90
13694;DHT22;6919;52.344;14.518;2023-04-21T09:58:43;19.30;99.90
13694;DHT22;6919;52.344;14.518;2023-04-21T10:01:16;19.40;99.90
13694;DHT22;6919;52.344;14.518;2023-04-21T10:03:47;19.30;99.90
13694;DHT22;6919;52.344;14.518;2023-04-21T10:06:16;19.50;99.90
13694;DHT22;6919;52.344;14.518;2023-04-21T10:08:46;19.60;99.90
13694;DHT22;6919;52.344;14.518;2023-04-21T10:11:17;19.60;99.90
13694;DHT22;6919;52.344;14.518;2023-04-21T10:13:46;19.70;99.90
13694;DHT22;6919;52.344;14.518;2023-04-21T10:16:16;19.80;99.90
13694;DHT22;6919;52.344;14.518;2023-04-21T10:18:47;19.70;99.90
13694;DHT22;6919;52.344;14.518;2023-04-21T10:21:17;19.80;99.90
13694;DHT22;6919;52.344;14.518;2023-04-21T10:23:49;19.90;99.90
13694;DHT22;6919;52.344;14.518;2023-04-21T10:26:20;20.10;99.90
13694;DHT22;6919;52.344;14.518;2023-04-21T10:28:55;20.20;99.90
13694;DHT22;6919;52.344;14.518;2023-04-21T10:31:33;20.20;99.90
13694;DHT22;6919;52.344;14.518;2023-04-21T10:34:19;20.10;99.90
13694;DHT22;6919;52.344;14.518;2023-04-21T10:37:08;20.00;99.90
13694;DHT22;6919;52.344;14.518;2023-04-21T10:39:54;19.90;99.90
13694;DHT22;6919;52.344;14.518;2023-04-21T10:45:11;20.20;99.90
13694;DHT22;6919;52.344;14.518;2023-04-21T10:47:48;20.40;99.90
13694;DHT22;6919;52.344;14.518;2023-04-21T10:50:22;20.50;99.90
13694;DHT22;6919;52.344;14.518;2023-04-21T10:52:58;20.60;99.90
13694;DHT22;6919;52.344;14.518;2023-04-21T10:55:35;20.40;99.90
13694;DHT22;6919;52.344;14.518;2023-04-21T10:58:05;20.40;99.90
13694;DHT22;6919;52.344;14.518;2023-04-21T11:00:35;20.30;99.90
13694;DHT22;6919;52.344;14.518;2023-04-21T11:03:07;20.40;99.90
13694;DHT22;6919;52.344;14.518;2023-04-21T11:05:37;20.50;99.90
13694;DHT22;6919;52.344;14.518;2023-04-21T11:08:08;20.60;99.90
13694;DHT22;6919;52.344;14.518;2023-04-21T11:10:46;20.70;99.90
13694;DHT22;6919;52.344;14.518;2023-04-21T11:13:20;20.70;99.90
13694;DHT22;6919;52.344;14.518;2023-04-21T11:15:58;20.70;99.90
13694;DHT22;6919;52.344;14.518;2023-04-21T11:18:35;20.80;99.90
13694;DHT22;6919;52.344;14.518;2023-04-21T11:21:10;20.80;99.90
13694;DHT22;6919;52.344;14.518;2023-04-21T11:23:51;20.70;99.90
13694;DHT22;6919;52.344;14.518;2023-04-21T11:26:31;20.80;99.10
13694;DHT22;6919;52.344;14.518;2023-04-21T11:29:04;20.80;99.50
13694;DHT22;6919;52.344;14.518;2023-04-21T11:31:34;20.70;98.40
13694;DHT22;6919;52.344;14.518;2023-04-21T11:34:06;20.70;97.70
13694;DHT22;6919;52.344;14.518;2023-04-21T11:36:35;21.00;98.50
13694;DHT22;6919;52.344;14.518;2023-04-21T11:39:06;21.30;97.40
13694;DHT22;6919;52.344;14.518;2023-04-21T11:41:38;21.10;96.60
13694;DHT22;6919;52.344;14.518;2023-04-21T11:44:08;20.70;95.70
13694;DHT22;6919;52.344;14.518;2023-04-21T11:46:37;20.70;96.40
13694;DHT22;6919;52.344;14.518;2023-04-21T11:49:15;20.90;97.00
13694;DHT22;6919;52.344;14.518;2023-04-21T11:51:44;21.00;95.80
13694;DHT22;6919;52.344;14.518;2023-04-21T11:54:13;21.00;93.90
13694;DHT22;6919;52.344;14.518;2023-04-21T11:56:46;20.90;94.50
13694;DHT22;6919;52.344;14.518;2023-04-21T11:59:16;21.10;95.20
13694;DHT22;6919;52.344;14.518;2023-04-21T12:01:53;21.30;94.30
13694;DHT22;6919;52.344;14.518;2023-04-21T12:04:24;21.40;93.30
13694;DHT22;6919;52.344;14.518;2023-04-21T12:06:58;21.40;92.70
13694;DHT22;6919;52.344;14.518;2023-04-21T12:09:28;21.10;93.60
13694;DHT22;6919;52.344;14.518;2023-04-21T12:11:57;21.30;93.60
13694;DHT22;6919;52.344;14.518;2023-04-21T12:14:27;21.50;94.30
13694;DHT22;6919;52.344;14.518;2023-04-21T12:16:56;21.40;93.20
13694;DHT22;6919;52.344;14.518;2023-04-21T12:19:36;21.40;92.90
13694;DHT22;6919;52.344;14.518;2023-04-21T12:22:06;21.70;92.50
13694;DHT22;6919;52.344;14.518;2023-04-21T12:24:36;21.60;91.80
13694;DHT22;6919;52.344;14.518;2023-04-21T12:27:06;21.50;91.20
13694;DHT22;6919;52.344;14.518;2023-04-21T12:29:35;21.60;91.10
13694;DHT22;6919;52.344;14.518;2023-04-21T12:32:05;21.40;90.80
13694;DHT22;6919;52.344;14.518;2023-04-21T12:34:35;21.60;99.90
13694;DHT22;6919;52.344;14.518;2023-04-21T12:37:03;21.40;90.40
13694;DHT22;6919;52.344;14.518;2023-04-21T12:39:32;21.30;89.70
13694;DHT22;6919;52.344;14.518;2023-04-21T12:42:01;21.10;89.40
13694;DHT22;6919;52.344;14.518;2023-04-21T12:44:29;21.20;90.10
13694;DHT22;6919;52.344;14.518;2023-04-21T12:46:58;21.50;87.60
13694;DHT22;6919;52.344;14.518;2023-04-21T12:49:27;21.70;87.20
13694;DHT22;6919;52.344;14.518;2023-04-21T12:51:57;21.80;88.00
13694;DHT22;6919;52.344;14.518;2023-04-21T12:54:26;22.00;86.80
13694;DHT22;6919;52.344;14.518;2023-04-21T12:56:55;22.60;84.50
13694;DHT22;6919;52.344;14.518;2023-04-21T12:59:23;22.10;82.60
13694;DHT22;6919;52.344;14.518;2023-04-21T13:01:52;22.10;82.40
13694;DHT22;6919;52.344;14.518;2023-04-21T13:04:22;22.50;81.20
13694;DHT22;6919;52.344;14.518;2023-04-21T13:07:02;23.20;97.20
13694;DHT22;6919;52.344;14.518;2023-04-21T13:09:34;23.50;77.60
13694;DHT22;6919;52.344;14.518;2023-04-21T13:12:03;22.80;76.90
13694;DHT22;6919;52.344;14.518;2023-04-21T13:14:31;22.20;78.60
13694;DHT22;6919;52.344;14.518;2023-04-21T13:17:00;21.90;76.40
13694;DHT22;6919;52.344;14.518;2023-04-21T13:19:28;22.10;78.30
13694;DHT22;6919;52.344;14.518;2023-04-21T13:21:57;23.00;77.80
13694;DHT22;6919;52.344;14.518;2023-04-21T13:24:27;24.00;74.50
13694;DHT22;6919;52.344;14.518;2023-04-21T13:26:55;23.90;71.50
13694;DHT22;6919;52.344;14.518;2023-04-21T13:29:24;23.80;71.40
13694;DHT22;6919;52.344;14.518;2023-04-21T13:31:56;22.90;70.10
13694;DHT22;6919;52.344;14.518;2023-04-21T13:34:24;22.70;74.00
13694;DHT22;6919;52.344;14.518;2023-04-21T13:36:52;22.90;72.20
13694;DHT22;6919;52.344;14.518;2023-04-21T13:39:21;22.90;70.80
13694;DHT22;6919;52.344;14.518;2023-04-21T13:41:50;23.80;72.90
13694;DHT22;6919;52.344;14.518;2023-04-21T13:44:20;24.50;68.50
13694;DHT22;6919;52.344;14.518;2023-04-21T13:46:48;25.30;65.50
13694;DHT22;6919;52.344;14.518;2023-04-21T13:49:18;24.90;63.30
13694;DHT22;6919;52.344;14.518;2023-04-21T13:51:47;24.80;64.10
13694;DHT22;6919;52.344;14.518;2023-04-21T13:54:15;25.00;63.70
13694;DHT22;6919;52.344;14.518;2023-04-21T13:56:43;24.70;60.40
13694;DHT22;6919;52.344;14.518;2023-04-21T13:59:13;23.90;60.20
13694;DHT22;6919;52.344;14.518;2023-04-21T14:01:42;22.70;60.40
13694;DHT22;6919;52.344;14.518;2023-04-21T14:04:10;22.30;89.40
13694;DHT22;6919;52.344;14.518;2023-04-21T14:06:40;23.60;65.00
13694;DHT22;6919;52.344;14.518;2023-04-21T14:09:08;24.90;63.40
13694;DHT22;6919;52.344;14.518;2023-04-21T14:11:37;25.50;58.60
13694;DHT22;6919;52.344;14.518;2023-04-21T14:14:05;25.30;57.30
13694;DHT22;6919;52.344;14.518;2023-04-21T14:16:37;25.10;57.10
13694;DHT22;6919;52.344;14.518;2023-04-21T14:19:05;24.70;57.20
13694;DHT22;6919;52.344;14.518;2023-04-21T14:21:34;24.30;55.20
13694;DHT22;6919;52.344;14.518;2023-04-21T14:24:02;24.90;55.10
13694;DHT22;6919;52.344;14.518;2023-04-21T14:26:30;24.90;56.10
13694;DHT22;6919;52.344;14.518;2023-04-21T14:28:59;25.00;55.40
13694;DHT22;6919;52.344;14.518;2023-04-21T14:31:27;25.30;54.60
13694;DHT22;6919;52.344;14.518;2023-04-21T14:33:57;25.70;54.10
13694;DHT22;6919;52.344;14.518;2023-04-21T14:36:26;25.80;53.10
13694;DHT22;6919;52.344;14.518;2023-04-21T14:38:54;26.20;51.70
13694;DHT22;6919;52.344;14.518;2023-04-21T14:41:22;26.90;49.50
13694;DHT22;6919;52.344;14.518;2023-04-21T14:43:51;27.10;47.80
13694;DHT22;6919;52.344;14.518;2023-04-21T14:46:22;27.40;47.20
13694;DHT22;6919;52.344;14.518;2023-04-21T14:48:50;27.00;47.60
13694;DHT22;6919;52.344;14.518;2023-04-21T14:51:20;26.60;44.90
13694;DHT22;6919;52.344;14.518;2023-04-21T14:53:49;25.50;45.70
13694;DHT22;6919;52.344;14.518;2023-04-21T14:56:17;25.10;68.50
13694;DHT22;6919;52.344;14.518;2023-04-21T14:58:46;25.30;47.90
13694;DHT22;6919;52.344;14.518;2023-04-21T15:01:14;26.00;46.30
13694;DHT22;6919;52.344;14.518;2023-04-21T15:03:42;26.00;44.90
13694;DHT22;6919;52.344;14.518;2023-04-21T15:06:11;25.50;44.60
13694;DHT22;6919;52.344;14.518;2023-04-21T15:08:40;25.80;45.30
13694;DHT22;6919;52.344;14.518;2023-04-21T15:11:09;25.60;44.40
13694;DHT22;6919;52.344;14.518;2023-04-21T15:13:37;25.80;44.80
13694;DHT22;6919;52.344;14.518;2023-04-21T15:16:05;25.50;43.90
13694;DHT22;6919;52.344;14.518;2023-04-21T15:18:34;25.80;43.10
13694;DHT22;6919;52.344;14.518;2023-04-21T15:21:03;24.80;41.00
13694;DHT22;6919;52.344;14.518;2023-04-21T15:23:31;24.30;43.90
13694;DHT22;6919;52.344;14.518;2023-04-21T15:26:02;24.20;44.40
13694;DHT22;6919;52.344;14.518;2023-04-21T15:28:31;23.90;42.90
13694;DHT22;6919;52.344;14.518;2023-04-21T15:31:01;23.90;43.30
13694;DHT22;6919;52.344;14.518;2023-04-21T15:33:29;23.40;43.30
13694;DHT22;6919;52.344;14.518;2023-04-21T15:35:57;23.10;43.60
13694;DHT22;6919;52.344;14.518;2023-04-21T15:38:26;22.70;45.20
13694;DHT22;6919;52.344;14.518;2023-04-21T15:40:54;22.60;45.00
13694;DHT22;6919;52.344;14.518;2023-04-21T15:43:28;22.30;45.20
13694;DHT22;6919;52.344;14.518;2023-04-21T15:45:56;22.10;45.00
13694;DHT22;6919;52.344;14.518;2023-04-21T15:48:25;21.60;45.10
13694;DHT22;6919;52.344;14.518;2023-04-21T15:50:53;21.30;46.00
13694;DHT22;6919;52.344;14.518;2023-04-21T15:53:23;21.20;47.90
13694;DHT22;6919;52.344;14.518;2023-04-21T15:55:51;21.20;46.60
13694;DHT22;6919;52.344;14.518;2023-04-21T15:58:19;21.00;47.40
13694;DHT22;6919;52.344;14.518;2023-04-21T16:00:49;21.00;46.80
13694;DHT22;6919;52.344;14.518;2023-04-21T16:03:18;20.80;47.10
13694;DHT22;6919;52.344;14.518;2023-04-21T16:05:47;20.70;47.00